Time;durP1;ratioP1;P1;durP2;ratioP2;P2;SDS_P1;SDS_P2;PMS_P1;PMS_P2;Temp;Humidity;BMP_temperature;BMP_pressure;BME280_temperature;BME280_humidity;BME280_pressure;Samples;Min_cycle;Max_cycle;Signal;HPM_P1;HPM_P2
2023/04/13 00:00:31;;;;;;;3.20;1.30;;;7.20;1.00;;;;;;5016753;28;20464;-81
2023/04/13 00:03:00;;;;;;;1.97;0.90;;;7.30;1.00;;;;;;5017090;28;20487;-79
2023/04/13 00:05:28;;;;;;;2.03;0.90;;;7.50;1.00;;;;;;5019007;28;20500;-80
2023/04/13 00:07:55;;;;;;;2.40;0.90;;;7.60;1.00;;;;;;5017767;28;20495;-81
2023/04/13 00:10:24;;;;;;;3.30;0.83;;;7.60;1.00;;;;;;5017896;28;20526;-79
2023/04/13 00:12:51;;;;;;;4.40;0.90;;;7.70;1.00;;;;;;5015765;28;20486;-81
2023/04/13 00:15:19;;;;;;;1.90;0.90;;;7.70;1.00;;;;;;5018585;28;20525;-80
2023/04/13 00:17:47;;;;;;;2.17;0.73;;;7.70;1.00;;;;;;5017387;28;20442;-80
2023/04/13 00:20:14;;;;;;;2.70;0.83;;;7.80;99.90;;;;;;5017068;28;20458;-80
2023/04/13 00:22:42;;;;;;;3.00;0.70;;;7.90;99.90;;;;;;5015929;28;20469;-80
2023/04/13 00:25:10;;;;;;;6.47;0.90;;;8.00;99.90;;;;;;5013872;28;20942;-78
2023/04/13 00:27:39;;;;;;;2.37;1.20;;;8.10;99.90;;;;;;5016891;28;20475;-79
2023/04/13 00:30:08;;;;;;;4.60;0.80;;;8.10;99.90;;;;;;5015668;28;20452;-80
2023/04/13 00:32:36;;;;;;;3.03;1.30;;;8.10;99.90;;;;;;5000845;28;20461;-79
2023/04/13 00:35:03;;;;;;;1.50;0.83;;;8.20;99.90;;;;;;5017118;28;20529;-80
2023/04/13 00:37:31;;;;;;;1.90;0.70;;;8.20;99.90;;;;;;5017380;28;20453;-82
2023/04/13 00:39:58;;;;;;;2.87;1.00;;;8.20;99.90;;;;;;5017739;28;20473;-79
2023/04/13 00:42:26;;;;;;;3.50;0.70;;;8.20;99.90;;;;;;5016568;28;20525;-80
2023/04/13 00:44:54;;;;;;;2.20;0.80;;;8.30;99.90;;;;;;5016989;28;20454;-81
2023/04/13 00:47:26;;;;;;;3.57;1.27;;;8.30;99.90;;;;;;5016253;28;20484;-80
2023/04/13 00:49:53;;;;;;;2.03;0.87;;;8.30;99.90;;;;;;5014752;28;20487;-82
2023/04/13 00:52:21;;;;;;;2.20;0.90;;;8.30;99.90;;;;;;5015883;28;20462;-79
2023/04/13 00:54:48;;;;;;;2.93;0.80;;;8.20;99.90;;;;;;5015346;28;20487;-79
2023/04/13 00:57:16;;;;;;;2.00;0.83;;;8.20;99.90;;;;;;5016298;28;20453;-81
2023/04/13 00:59:43;;;;;;;1.97;1.00;;;8.00;1.00;;;;;;5015022;28;20475;-80
2023/04/13 01:02:12;;;;;;;3.10;1.00;;;7.70;1.00;;;;;;5014211;28;20450;-82
2023/04/13 01:04:38;;;;;;;2.43;1.00;;;7.60;1.00;;;;;;5014945;28;20480;-82
2023/04/13 01:07:12;;;;;;;6.77;1.13;;;7.40;20.00;;;;;;5015360;28;20478;-81
2023/04/13 01:09:43;;;;;;;2.00;1.00;;;7.30;65.20;;;;;;5015734;28;20828;-81
2023/04/13 01:12:17;;;;;;;2.33;1.17;;;7.20;93.70;;;;;;5014020;28;20465;-83
2023/04/13 01:14:49;;;;;;;4.53;1.17;;;7.20;99.90;;;;;;5014543;28;20478;-83
2023/04/13 01:17:24;;;;;;;2.80;0.90;;;7.10;99.90;;;;;;5014526;28;20434;-81
2023/04/13 01:19:56;;;;;;;3.03;0.80;;;7.00;99.90;;;;;;5014834;28;20825;-82
2023/04/13 01:22:27;;;;;;;5.93;1.13;;;7.00;99.90;;;;;;5013895;28;20468;-82
2023/04/13 01:25:06;;;;;;;2.13;0.80;;;7.00;99.90;;;;;;5015226;28;20480;-81
2023/04/13 01:27:45;;;;;;;2.60;1.00;;;6.90;99.90;;;;;;5014908;28;20478;-83
2023/04/13 01:30:13;;;;;;;5.27;1.23;;;6.90;99.90;;;;;;5014542;28;20540;-82
2023/04/13 01:32:42;;;;;;;1.40;0.80;;;6.90;99.90;;;;;;5014141;28;20488;-82
2023/04/13 01:35:09;;;;;;;3.47;1.13;;;6.80;99.90;;;;;;5014852;28;20465;-82
2023/04/13 01:37:37;;;;;;;3.43;0.90;;;6.80;99.90;;;;;;5012498;28;20463;-80
2023/04/13 01:40:12;;;;;;;5.53;1.00;;;6.80;99.90;;;;;;5015512;28;20873;-82
2023/04/13 01:42:41;;;;;;;1.70;0.93;;;6.80;99.90;;;;;;5014458;28;20465;-81
2023/04/13 01:45:12;;;;;;;3.70;0.93;;;6.80;99.90;;;;;;5017579;28;20480;-79
2023/04/13 01:47:43;;;;;;;4.90;1.10;;;6.80;99.90;;;;;;5018960;28;20492;-82
2023/04/13 01:50:18;;;;;;;2.03;0.87;;;6.80;99.90;;;;;;5018233;28;20451;-81
2023/04/13 01:52:46;;;;;;;4.13;1.23;;;6.80;99.90;;;;;;5017187;28;20472;-80
2023/04/13 01:55:14;;;;;;;2.33;1.00;;;6.80;99.90;;;;;;5019651;28;20877;-82
2023/04/13 01:57:46;;;;;;;2.00;0.90;;;6.90;99.90;;;;;;5020118;28;20453;-79
2023/04/13 02:00:15;;;;;;;2.50;0.83;;;6.90;99.90;;;;;;5018995;28;20540;-80
2023/04/13 02:02:43;;;;;;;3.00;1.27;;;7.00;99.90;;;;;;5017505;28;20476;-79
2023/04/13 02:05:10;;;;;;;1.90;0.80;;;7.10;99.90;;;;;;5025284;28;20457;-82
2023/04/13 02:07:39;;;;;;;2.80;1.00;;;7.10;99.90;;;;;;5020857;28;20821;-79
2023/04/13 02:10:06;;;;;;;1.97;0.90;;;7.20;98.00;;;;;;5021011;28;20461;-79
2023/04/13 02:12:33;;;;;;;3.00;1.10;;;7.20;84.40;;;;;;5021061;28;20457;-81
2023/04/13 02:15:01;;;;;;;4.07;0.87;;;7.10;99.90;;;;;;5021200;28;20480;-85
2023/04/13 02:17:29;;;;;;;2.87;0.87;;;7.00;99.90;;;;;;5019285;28;20465;-81
2023/04/13 02:19:56;;;;;;;3.80;1.17;;;7.00;99.90;;;;;;5018785;28;20451;-81
2023/04/13 02:22:23;;;;;;;2.23;0.90;;;6.90;99.90;;;;;;5018030;28;21023;-80
2023/04/13 02:24:50;;;;;;;1.90;0.80;;;7.00;99.90;;;;;;5019182;28;20518;-82
2023/04/13 02:27:17;;;;;;;3.80;1.20;;;6.90;99.90;;;;;;5019115;28;20456;-80
2023/04/13 02:29:44;;;;;;;1.70;1.07;;;6.90;99.90;;;;;;5019110;28;20861;-79
2023/04/13 02:32:13;;;;;;;2.13;0.80;;;6.90;99.90;;;;;;5018596;28;20449;-82
2023/04/13 02:34:40;;;;;;;2.70;0.90;;;6.90;99.90;;;;;;5018329;28;20549;-82
2023/04/13 02:37:08;;;;;;;4.17;0.90;;;6.90;99.90;;;;;;5019708;28;20460;-81
2023/04/13 02:39:35;;;;;;;2.60;1.00;;;6.90;99.90;;;;;;5018557;28;20523;-81
2023/04/13 02:42:03;;;;;;;3.17;1.60;;;6.90;99.90;;;;;;5017384;28;20469;-81
2023/04/13 02:44:30;;;;;;;2.23;0.70;;;6.90;99.90;;;;;;5017367;28;20551;-80
2023/04/13 02:46:56;;;;;;;4.57;1.10;;;6.90;99.90;;;;;;5018492;28;20874;-79
2023/04/13 02:49:25;;;;;;;2.47;0.90;;;6.90;99.90;;;;;;5018515;28;20482;-80
2023/04/13 02:51:51;;;;;;;2.63;1.00;;;6.90;99.90;;;;;;5018891;28;20450;-78
2023/04/13 02:54:18;;;;;;;3.83;1.07;;;6.90;99.90;;;;;;5020759;28;20481;-79
2023/04/13 02:56:46;;;;;;;4.33;0.90;;;7.00;99.90;;;;;;5020681;28;20454;-79
2023/04/13 02:59:13;;;;;;;3.93;0.90;;;7.00;99.90;;;;;;5024680;28;20450;-82
2023/04/13 03:01:40;;;;;;;3.83;1.30;;;7.00;99.90;;;;;;5031547;28;20435;-82
2023/04/13 03:04:08;;;;;;;3.67;1.00;;;7.00;99.90;;;;;;5033039;28;20473;-85
2023/04/13 03:06:36;;;;;;;3.13;1.00;;;7.00;99.90;;;;;;5033555;28;20540;-83
2023/04/13 03:09:04;;;;;;;2.20;1.00;;;7.00;99.90;;;;;;5014228;28;20545;-84
2023/04/13 03:11:31;;;;;;;3.67;1.33;;;7.00;99.90;;;;;;5016798;28;20445;-84
2023/04/13 03:13:59;;;;;;;3.40;1.27;;;6.90;99.90;;;;;;5035682;28;20505;-84
2023/04/13 03:16:27;;;;;;;2.83;1.20;;;6.90;99.90;;;;;;5034571;28;20433;-84
2023/04/13 03:18:54;;;;;;;2.53;1.00;;;6.90;99.90;;;;;;5035988;28;20465;-84
2023/04/13 03:21:21;;;;;;;3.87;1.10;;;6.80;99.90;;;;;;5032106;28;20462;-83
2023/04/13 03:23:49;;;;;;;2.27;0.80;;;6.80;99.90;;;;;;5032903;28;20571;-82
2023/04/13 03:26:16;;;;;;;3.30;1.00;;;6.80;99.90;;;;;;5022226;28;20445;-81
2023/04/13 03:28:43;;;;;;;2.10;1.13;;;6.80;99.90;;;;;;5018861;28;20871;-81
2023/04/13 03:31:10;;;;;;;4.50;1.30;;;6.80;99.90;;;;;;5018312;28;20483;-82
2023/04/13 03:33:37;;;;;;;1.70;1.00;;;6.90;99.90;;;;;;5018211;28;20486;-82
2023/04/13 03:36:04;;;;;;;2.77;1.10;;;6.80;99.90;;;;;;5016774;28;20453;-83
2023/04/13 03:38:31;;;;;;;1.80;1.00;;;6.90;99.90;;;;;;5017129;28;20456;-83
2023/04/13 03:40:59;;;;;;;1.60;0.90;;;6.80;99.90;;;;;;5017788;28;20452;-81
2023/04/13 03:43:26;;;;;;;5.20;1.47;;;6.80;99.90;;;;;;5018361;28;20481;-82
2023/04/13 03:45:53;;;;;;;4.20;1.47;;;6.80;99.90;;;;;;5019544;28;20485;-81
2023/04/13 03:48:20;;;;;;;2.87;1.00;;;6.90;99.90;;;;;;5020845;28;20473;-81
2023/04/13 03:50:46;;;;;;;3.50;1.37;;;6.90;99.90;;;;;;5019349;28;20805;-81
2023/04/13 03:53:13;;;;;;;4.20;0.90;;;6.90;99.90;;;;;;5020313;28;20476;-80
2023/04/13 03:55:40;;;;;;;3.13;1.20;;;6.90;99.90;;;;;;5020099;28;20624;-81
2023/04/13 03:58:08;;;;;;;3.83;1.13;;;7.00;99.90;;;;;;5020045;28;20457;-81
2023/04/13 04:00:35;;;;;;;1.90;1.00;;;7.00;99.90;;;;;;5019507;28;20457;-79
2023/04/13 04:03:02;;;;;;;3.00;1.17;;;7.00;99.90;;;;;;5019816;28;20477;-82
2023/04/13 04:05:28;;;;;;;3.30;0.90;;;7.00;99.90;;;;;;5020742;28;20464;-81
2023/04/13 04:07:55;;;;;;;4.03;1.40;;;7.00;99.90;;;;;;5018210;28;20452;-81
2023/04/13 04:10:22;;;;;;;2.27;0.90;;;7.00;99.90;;;;;;5019685;28;20915;-82
2023/04/13 04:15:37;;;;;;;3.37;0.90;;;7.10;99.90;;;;;;5034134;28;20483;-82
2023/04/13 04:18:04;;;;;;;2.13;1.30;;;7.10;99.90;;;;;;5033399;28;20453;-78
2023/04/13 04:20:31;;;;;;;3.43;1.10;;;7.00;99.90;;;;;;5027095;28;20464;-77
2023/04/13 04:23:00;;;;;;;1.60;0.90;;;7.00;99.90;;;;;;5033222;28;20452;-78
2023/04/13 04:25:26;;;;;;;2.23;0.90;;;7.10;99.90;;;;;;5043660;28;20459;-78
2023/04/13 04:27:56;;;;;;;2.30;0.80;;;7.10;99.90;;;;;;5051259;28;20456;-77
2023/04/13 04:30:23;;;;;;;1.97;1.10;;;7.10;99.90;;;;;;5050845;28;20996;-80
2023/04/13 04:32:53;;;;;;;3.10;1.13;;;7.10;99.90;;;;;;5040958;28;20839;-82
2023/04/13 04:35:20;;;;;;;1.50;0.73;;;7.10;99.90;;;;;;5035121;28;20476;-80
2023/04/13 04:37:48;;;;;;;2.47;0.87;;;7.10;99.90;;;;;;5033941;28;20825;-80
2023/04/13 04:40:16;;;;;;;1.80;1.10;;;7.10;99.90;;;;;;5038469;28;20832;-80
2023/04/13 04:42:43;;;;;;;3.50;1.07;;;7.10;99.90;;;;;;5035774;28;20465;-80
2023/04/13 04:45:10;;;;;;;2.30;0.90;;;7.10;99.90;;;;;;5034778;28;20567;-80
2023/04/13 04:47:40;;;;;;;2.93;0.87;;;7.10;99.90;;;;;;5033720;28;20456;-80
2023/04/13 04:50:09;;;;;;;1.50;0.80;;;7.10;99.90;;;;;;5033030;28;20472;-80
2023/04/13 04:52:36;;;;;;;2.77;1.03;;;7.10;99.90;;;;;;5032683;28;20804;-79
2023/04/13 04:55:05;;;;;;;2.80;0.80;;;7.10;99.90;;;;;;5034237;28;20499;-79
2023/04/13 04:57:32;;;;;;;1.90;0.97;;;7.10;99.90;;;;;;5033255;28;20460;-79
2023/04/13 04:59:59;;;;;;;3.90;1.00;;;7.10;99.90;;;;;;5033445;28;20448;-79
2023/04/13 05:02:25;;;;;;;3.00;0.83;;;7.00;99.90;;;;;;5032091;28;20448;-79
2023/04/13 05:04:53;;;;;;;5.20;1.13;;;7.10;99.90;;;;;;5032742;28;20471;-79
2023/04/13 05:07:22;;;;;;;1.87;0.80;;;7.10;99.90;;;;;;5033497;28;20459;-80
2023/04/13 05:09:49;;;;;;;4.53;0.90;;;7.10;99.90;;;;;;5034606;28;20856;-78
2023/04/13 05:12:17;;;;;;;3.63;0.90;;;7.10;99.90;;;;;;5032894;28;20457;-79
2023/04/13 05:14:46;;;;;;;2.43;0.77;;;7.20;99.90;;;;;;5033646;28;20522;-79
2023/04/13 05:17:17;;;;;;;1.80;0.90;;;7.20;99.90;;;;;;5034297;28;20528;-79
2023/04/13 05:19:43;;;;;;;3.83;1.10;;;7.20;99.90;;;;;;5034682;28;20895;-80
2023/04/13 05:22:10;;;;;;;2.60;0.77;;;7.20;99.90;;;;;;5032226;28;20454;-77
2023/04/13 05:24:39;;;;;;;4.93;1.20;;;7.30;99.90;;;;;;5031778;28;20476;-77
2023/04/13 05:27:07;;;;;;;2.10;0.97;;;7.40;99.90;;;;;;5031793;28;20452;-76
2023/04/13 05:29:34;;;;;;;2.13;0.70;;;7.40;99.90;;;;;;5032120;28;20580;-77
2023/04/13 05:32:01;;;;;;;1.77;0.97;;;7.50;99.90;;;;;;5029250;28;20468;-77
2023/04/13 05:34:28;;;;;;;3.10;0.93;;;7.60;99.90;;;;;;5031150;28;20472;-77
2023/04/13 05:36:56;;;;;;;3.80;1.10;;;7.60;99.90;;;;;;5031148;28;20466;-78
2023/04/13 05:39:24;;;;;;;1.50;0.80;;;7.60;99.90;;;;;;5033507;28;20458;-77
2023/04/13 05:41:52;;;;;;;2.07;0.90;;;7.60;99.90;;;;;;5034744;28;20806;-77
2023/04/13 05:44:19;;;;;;;1.30;0.67;;;7.60;99.90;;;;;;5035347;28;20474;-77
2023/04/13 05:46:46;;;;;;;2.07;0.93;;;7.60;99.90;;;;;;5035694;28;20452;-79
2023/04/13 05:49:14;;;;;;;3.17;1.00;;;7.70;99.90;;;;;;5035738;28;20520;-79
2023/04/13 05:51:41;;;;;;;2.20;1.00;;;7.70;99.90;;;;;;5036593;28;20452;-80
2023/04/13 05:54:09;;;;;;;2.03;1.00;;;7.80;99.90;;;;;;5038818;28;20487;-80
2023/04/13 05:56:36;;;;;;;2.57;1.03;;;7.80;99.90;;;;;;5040625;28;20457;-79
2023/04/13 05:59:04;;;;;;;5.67;0.90;;;7.90;99.90;;;;;;5037445;28;21042;-77
2023/04/13 06:01:31;;;;;;;2.33;1.20;;;8.10;99.90;;;;;;5034698;28;20468;-77
2023/04/13 06:03:59;;;;;;;2.20;1.30;;;8.20;98.20;;;;;;5035220;28;20583;-78
2023/04/13 06:06:26;;;;;;;1.57;0.97;;;8.30;99.90;;;;;;5035970;28;20445;-80
2023/04/13 06:08:53;;;;;;;3.10;1.07;;;8.30;59.40;;;;;;5031351;28;20468;-77
2023/04/13 06:11:20;;;;;;;6.60;1.20;;;8.50;79.80;;;;;;5032192;28;20479;-78
2023/04/13 06:13:47;;;;;;;4.17;1.10;;;8.60;45.00;;;;;;5031527;28;20550;-76
2023/04/13 06:16:17;;;;;;;3.00;0.97;;;8.70;22.20;;;;;;5034900;28;20514;-76
2023/04/13 06:18:44;;;;;;;3.60;1.10;;;8.80;22.60;;;;;;5032542;28;20838;-78
2023/04/13 06:21:11;;;;;;;3.03;1.10;;;8.90;1.00;;;;;;5034043;28;20833;-78
2023/04/13 06:23:38;;;;;;;4.40;1.20;;;9.00;1.00;;;;;;5038122;28;20473;-78
2023/04/13 06:26:05;;;;;;;4.23;1.87;;;9.10;1.00;;;;;;5034921;28;20457;-78
2023/04/13 06:28:32;;;;;;;4.37;1.63;;;9.10;1.00;;;;;;5031043;28;20455;-78
2023/04/13 06:30:59;;;;;;;4.70;1.60;;;9.20;1.00;;;;;;5030519;28;20492;-79
2023/04/13 06:33:27;;;;;;;3.87;1.37;;;9.30;1.00;;;;;;5027883;28;20476;-78
2023/04/13 06:35:54;;;;;;;2.40;1.50;;;9.30;1.00;;;;;;5032169;28;20556;-79
2023/04/13 06:38:21;;;;;;;4.93;1.33;;;9.30;1.00;;;;;;5025144;28;20449;-78
2023/04/13 06:40:48;;;;;;;2.40;1.27;;;9.40;1.00;;;;;;5023575;28;20474;-79
2023/04/13 06:43:14;;;;;;;2.00;1.40;;;9.50;1.00;;;;;;5028647;28;20451;-78
2023/04/13 06:45:42;;;;;;;5.77;1.30;;;9.60;1.00;;;;;;5032396;28;21092;-78
2023/04/13 06:48:10;;;;;;;2.53;1.23;;;9.50;1.00;;;;;;5031023;28;20552;-78
2023/04/13 06:50:38;;;;;;;4.40;1.47;;;9.40;1.00;;;;;;5032835;28;20606;-77
2023/04/13 06:53:05;;;;;;;2.87;1.20;;;9.40;1.00;;;;;;5033789;28;20488;-79
2023/04/13 06:55:32;;;;;;;1.73;0.90;;;9.40;1.00;;;;;;5034931;28;20957;-80
2023/04/13 06:57:59;;;;;;;7.60;1.60;;;9.20;1.00;;;;;;5034716;28;20449;-79
2023/04/13 07:00:26;;;;;;;5.77;1.30;;;9.30;1.00;;;;;;5034063;28;20460;-79
2023/04/13 07:02:53;;;;;;;1.93;0.90;;;9.30;1.00;;;;;;5032987;28;20461;-79
2023/04/13 07:05:20;;;;;;;3.43;1.37;;;9.20;1.00;;;;;;5028706;28;20520;-78
2023/04/13 07:07:50;;;;;;;3.87;1.40;;;9.30;1.00;;;;;;5031688;28;20468;-80
2023/04/13 07:10:17;;;;;;;1.60;0.80;;;9.40;1.00;;;;;;5030835;28;20926;-78
2023/04/13 07:12:44;;;;;;;2.90;1.17;;;9.50;99.90;;;;;;5030918;28;20452;-79
2023/04/13 07:15:11;;;;;;;2.60;1.23;;;9.60;99.90;;;;;;5030293;28;20482;-79
2023/04/13 07:17:38;;;;;;;2.40;1.47;;;9.50;99.90;;;;;;5031289;28;20825;-78
2023/04/13 07:20:06;;;;;;;3.27;1.40;;;9.40;1.00;;;;;;5033673;28;20454;-79
2023/04/13 07:22:34;;;;;;;2.13;1.10;;;9.40;99.90;;;;;;5031150;28;21173;-77
2023/04/13 07:25:02;;;;;;;2.83;1.10;;;9.50;99.90;;;;;;5034075;28;20480;-78
2023/04/13 07:27:29;;;;;;;1.93;1.10;;;9.80;99.90;;;;;;5034193;28;20845;-80
2023/04/13 07:29:56;;;;;;;5.23;1.50;;;9.80;65.40;;;;;;5033788;28;20482;-79
2023/04/13 07:32:24;;;;;;;3.93;1.57;;;9.70;99.90;;;;;;5032522;28;20843;-78
2023/04/13 07:34:51;;;;;;;2.90;1.37;;;9.90;99.90;;;;;;5033361;28;21133;-78
2023/04/13 07:37:17;;;;;;;5.97;1.77;;;10.10;1.00;;;;;;5030732;28;20461;-77
2023/04/13 07:39:44;;;;;;;3.60;1.27;;;10.40;1.00;;;;;;5032769;28;20487;-80
2023/04/13 07:42:13;;;;;;;2.80;1.40;;;10.40;89.40;;;;;;5030460;28;20547;-78
2023/04/13 07:44:41;;;;;;;2.00;0.97;;;10.50;64.40;;;;;;5032951;28;20467;-79
2023/04/13 07:47:08;;;;;;;3.43;1.27;;;10.70;1.00;;;;;;5032196;28;20522;-79
2023/04/13 07:49:37;;;;;;;3.53;1.10;;;10.70;1.00;;;;;;5033152;28;21021;-79
2023/04/13 07:52:04;;;;;;;3.17;1.03;;;10.80;1.00;;;;;;5033111;28;20507;-78
2023/04/13 07:54:31;;;;;;;2.43;1.00;;;11.00;1.00;;;;;;5034677;28;20569;-79
2023/04/13 07:57:03;;;;;;;3.10;1.40;;;11.00;1.00;;;;;;5035971;28;20449;-77
2023/04/13 07:59:31;;;;;;;3.40;0.97;;;11.10;99.90;;;;;;5036446;28;20425;-78
2023/04/13 08:01:58;;;;;;;3.00;1.60;;;11.40;99.90;;;;;;5034974;28;20550;-78
2023/04/13 08:04:25;;;;;;;3.30;0.80;;;11.00;99.90;;;;;;5035518;28;20473;-80
2023/04/13 08:06:53;;;;;;;2.27;1.00;;;10.70;99.90;;;;;;5036537;28;20458;-79
2023/04/13 08:09:20;;;;;;;4.70;1.30;;;10.20;99.90;;;;;;5034289;28;20459;-79
2023/04/13 08:12:00;;;;;;;2.90;1.00;;;10.00;1.00;;;;;;5033319;28;20956;-79
2023/04/13 08:14:27;;;;;;;1.77;0.90;;;10.00;99.90;;;;;;5034303;28;21030;-81
2023/04/13 08:16:55;;;;;;;3.17;1.07;;;9.90;1.00;;;;;;5033639;28;20458;-79
2023/04/13 08:19:22;;;;;;;3.60;1.10;;;10.00;99.90;;;;;;5033880;28;20469;-79
2023/04/13 08:21:50;;;;;;;2.30;1.00;;;10.00;1.00;;;;;;5033049;28;20837;-77
2023/04/13 08:24:17;;;;;;;2.23;1.07;;;10.00;1.00;;;;;;5033299;28;20597;-79
2023/04/13 08:26:45;;;;;;;4.13;1.07;;;10.00;1.00;;;;;;5031584;28;20458;-78
2023/04/13 08:29:14;;;;;;;2.50;1.13;;;10.30;1.00;;;;;;5032647;28;20540;-78
2023/04/13 08:31:43;;;;;;;4.03;1.40;;;10.50;1.00;;;;;;5029726;28;20570;-78
2023/04/13 08:34:12;;;;;;;10.63;4.03;;;10.60;99.90;;;;;;5033186;28;20478;-78
2023/04/13 08:36:39;;;;;;;4.60;1.70;;;10.60;99.90;;;;;;5032670;28;20482;-78
2023/04/13 08:39:08;;;;;;;1.80;0.93;;;10.50;99.90;;;;;;5032166;28;20456;-79
2023/04/13 08:41:37;;;;;;;3.10;0.90;;;10.50;99.90;;;;;;5032199;28;20452;-78
2023/04/13 08:44:06;;;;;;;4.03;1.10;;;10.50;99.90;;;;;;5032971;28;20522;-77
2023/04/13 08:46:34;;;;;;;3.97;1.20;;;10.30;99.90;;;;;;5032546;28;20459;-78
2023/04/13 08:49:02;;;;;;;3.17;1.50;;;10.30;99.90;;;;;;5030780;28;20910;-79
2023/04/13 08:51:31;;;;;;;2.60;1.20;;;10.20;99.90;;;;;;5031678;28;20488;-78
2023/04/13 08:53:59;;;;;;;3.17;1.27;;;10.20;1.00;;;;;;5032330;28;20476;-78
2023/04/13 08:56:27;;;;;;;3.50;1.23;;;10.20;99.90;;;;;;5032886;28;20545;-78
2023/04/13 08:58:58;;;;;;;4.13;1.53;;;10.10;99.90;;;;;;5032516;28;20508;-77
2023/04/13 09:01:27;;;;;;;4.80;1.53;;;10.20;99.90;;;;;;5031104;28;20436;-77
2023/04/13 09:03:59;;;;;;;2.93;1.20;;;10.20;99.90;;;;;;5032514;28;20470;-78
2023/04/13 09:06:32;;;;;;;2.47;1.37;;;10.40;99.90;;;;;;5032630;28;20447;-78
2023/04/13 09:09:03;;;;;;;3.70;1.20;;;10.40;99.90;;;;;;5032570;28;20456;-78
2023/04/13 09:11:31;;;;;;;3.17;1.10;;;10.40;99.90;;;;;;5029307;28;20716;-78
2023/04/13 09:14:01;;;;;;;3.47;1.00;;;10.20;1.00;;;;;;5032071;28;20483;-78
2023/04/13 09:16:28;;;;;;;4.60;1.57;;;10.10;1.00;;;;;;5032171;28;21309;-78
2023/04/13 09:18:57;;;;;;;5.27;1.53;;;10.00;1.00;;;;;;5032914;28;20454;-79
2023/04/13 09:21:36;;;;;;;3.70;1.40;;;10.00;1.00;;;;;;5031532;28;20538;-80
2023/04/13 09:24:06;;;;;;;8.47;1.70;;;10.00;1.00;;;;;;5032321;28;20475;-78
2023/04/13 09:26:43;;;;;;;6.97;1.80;;;10.10;99.90;;;;;;5032406;28;20495;-79
2023/04/13 09:29:12;;;;;;;4.70;1.40;;;10.00;9.80;;;;;;5032028;28;20801;-80
2023/04/13 09:31:39;;;;;;;6.23;1.40;;;10.10;99.90;;;;;;5029283;28;20478;-78
2023/04/13 09:34:07;;;;;;;4.70;1.63;;;10.20;1.00;;;;;;5031641;28;20475;-78
2023/04/13 09:36:34;;;;;;;3.60;1.60;;;10.40;1.00;;;;;;5032229;28;20550;-77
2023/04/13 09:39:01;;;;;;;8.80;1.60;;;10.60;1.00;;;;;;5032546;28;20531;-78
2023/04/13 09:41:33;;;;;;;4.00;1.37;;;10.40;99.90;;;;;;5030941;28;20971;-79
2023/04/13 09:44:00;;;;;;;6.80;1.40;;;10.50;99.90;;;;;;5031991;28;20469;-77
2023/04/13 09:46:27;;;;;;;4.53;1.53;;;10.60;1.00;;;;;;5032458;28;20461;-77
2023/04/13 09:49:02;;;;;;;6.93;1.63;;;10.80;99.90;;;;;;5032463;28;20452;-79
2023/04/13 09:51:38;;;;;;;16.33;1.90;;;11.20;99.90;;;;;;5035057;28;20489;-79
2023/04/13 09:54:06;;;;;;;5.37;1.73;;;12.00;1.00;;;;;;5033670;28;21082;-78
2023/04/13 09:56:45;;;;;;;6.20;2.00;;;13.90;1.00;;;;;;5034791;28;20850;-79
2023/04/13 09:59:13;;;;;;;5.20;1.40;;;16.00;1.00;;;;;;5032654;28;20552;-77
2023/04/13 10:01:40;;;;;;;4.40;1.63;;;16.50;1.00;;;;;;5031147;28;20509;-81
2023/04/13 10:04:08;;;;;;;5.47;1.80;;;16.10;1.00;;;;;;5029991;28;20484;-78
2023/04/13 10:06:38;;;;;;;6.30;1.67;;;15.70;1.00;;;;;;5032300;28;20463;-78
2023/04/13 10:09:06;;;;;;;8.57;2.20;;;15.00;1.00;;;;;;5032531;28;20466;-77
2023/04/13 10:11:42;;;;;;;8.23;1.90;;;14.20;1.00;;;;;;5032998;28;20489;-78
2023/04/13 10:14:16;;;;;;;4.17;1.40;;;14.10;1.00;;;;;;5059211;22;20498;-83
2023/04/13 10:17:07;;;;;;;4.20;1.53;;;13.50;1.00;;;;;;5039419;28;20453;-85
2023/04/13 10:19:37;;;;;;;4.50;1.60;;;13.00;1.00;;;;;;5040743;28;20456;-83
2023/04/13 10:22:08;;;;;;;4.47;1.47;;;12.60;1.00;;;;;;5036981;28;20534;-83
2023/04/13 10:24:35;;;;;;;4.10;1.57;;;12.80;1.00;;;;;;5040944;28;21072;-85
2023/04/13 10:27:11;;;;;;;5.83;1.40;;;13.00;14.70;;;;;;5031528;28;20460;-85
2023/04/13 10:29:39;;;;;;;5.33;2.37;;;12.40;17.20;;;;;;5032104;28;20429;-84
2023/04/13 10:32:06;;;;;;;4.23;2.07;;;12.50;1.00;;;;;;5023455;28;20486;-84
2023/04/13 10:34:35;;;;;;;4.40;1.63;;;12.50;1.00;;;;;;5021573;28;20475;-85
2023/04/13 10:37:05;;;;;;;6.03;1.83;;;12.20;1.00;;;;;;5022679;28;20466;-84
2023/04/13 10:39:33;;;;;;;5.47;1.70;;;12.30;1.00;;;;;;5025119;28;20931;-84
2023/04/13 10:42:01;;;;;;;4.67;1.83;;;12.40;1.00;;;;;;5031579;28;20524;-86
2023/04/13 10:44:29;;;;;;;13.00;6.50;;;12.50;10.60;;;;;;5033635;28;20479;-84
2023/04/13 10:47:04;;;;;;;7.80;2.87;;;12.50;3.70;;;;;;5036274;28;20510;-87
2023/04/13 10:49:32;;;;;;;5.20;1.90;;;12.20;30.30;;;;;;5022798;28;21029;-84
2023/04/13 10:51:59;;;;;;;4.47;1.43;;;12.10;99.90;;;;;;5024292;28;20497;-85
2023/04/13 10:54:28;;;;;;;6.53;2.30;;;11.90;99.90;;;;;;5029075;28;20557;-84
2023/04/13 10:56:58;;;;;;;7.57;2.00;;;11.50;99.90;;;;;;5023349;28;20457;-83
2023/04/13 10:59:37;;;;;;;5.97;1.90;;;11.40;99.90;;;;;;5033055;28;20456;-83
2023/04/13 11:02:10;;;;;;;7.80;2.90;;;11.50;99.90;;;;;;5032438;28;20488;-83
2023/04/13 11:04:38;;;;;;;4.57;1.30;;;11.70;99.90;;;;;;5029199;28;20486;-83
2023/04/13 11:07:07;;;;;;;4.93;1.50;;;12.00;99.90;;;;;;5018887;28;20454;-83
2023/04/13 11:09:34;;;;;;;7.37;2.27;;;12.30;99.90;;;;;;5016017;28;20478;-83
2023/04/13 11:12:01;;;;;;;10.03;1.90;;;12.70;53.00;;;;;;5016846;28;20483;-84
2023/04/13 11:14:28;;;;;;;5.00;2.20;;;12.60;16.00;;;;;;5032499;28;20986;-84
2023/04/13 11:16:55;;;;;;;8.00;2.53;;;12.70;47.40;;;;;;5036241;28;20541;-83
2023/04/13 11:19:23;;;;;;;8.97;2.43;;;13.20;59.40;;;;;;5019516;28;20490;-83
2023/04/13 11:21:55;;;;;;;5.10;1.83;;;13.80;1.00;;;;;;5018760;28;20460;-82
2023/04/13 11:24:26;;;;;;;5.20;1.77;;;15.40;1.00;;;;;;5023047;28;20510;-85
2023/04/13 11:26:54;;;;;;;7.30;2.73;;;15.80;1.00;;;;;;5031570;28;20460;-83
2023/04/13 11:29:21;;;;;;;6.73;2.10;;;15.40;1.00;;;;;;5023117;28;20950;-83
2023/04/13 11:31:48;;;;;;;6.87;1.90;;;14.90;1.00;;;;;;5032642;28;20871;-85
2023/04/13 11:34:28;;;;;;;5.83;1.73;;;14.60;1.00;;;;;;5023315;28;20495;-83
2023/04/13 11:37:02;;;;;;;6.27;1.80;;;14.80;1.00;;;;;;5021428;28;20461;-83
2023/04/13 11:39:30;;;;;;;8.73;2.53;;;14.60;1.00;;;;;;5019587;28;20453;-84
2023/04/13 11:41:57;;;;;;;6.00;1.70;;;14.50;1.00;;;;;;5020265;28;20454;-83
2023/04/13 11:44:26;;;;;;;5.43;2.00;;;14.20;1.00;;;;;;5020220;28;20503;-86
2023/04/13 11:46:55;;;;;;;10.43;2.00;;;14.10;1.00;;;;;;5023828;28;20453;-85
2023/04/13 11:49:23;;;;;;;6.70;2.33;;;14.10;1.00;;;;;;5027346;28;20450;-83
2023/04/13 11:51:51;;;;;;;9.43;2.23;;;14.30;1.00;;;;;;5021621;28;20504;-86
2023/04/13 11:54:18;;;;;;;4.70;2.13;;;14.10;1.00;;;;;;5019991;28;20500;-85
2023/04/13 11:56:46;;;;;;;6.20;1.80;;;14.20;1.00;;;;;;5019076;28;20460;-85
2023/04/13 11:59:13;;;;;;;8.10;2.07;;;14.50;1.00;;;;;;5019034;28;20481;-83
2023/04/13 12:01:40;;;;;;;7.63;2.40;;;14.90;1.00;;;;;;5021315;28;20454;-85
2023/04/13 12:04:07;;;;;;;7.10;1.97;;;15.70;1.00;;;;;;5033608;28;20597;-84
2023/04/13 12:06:41;;;;;;;6.47;2.00;;;16.10;1.00;;;;;;5039921;28;20449;-84
2023/04/13 12:09:09;;;;;;;3.47;1.67;;;15.70;1.00;;;;;;5039986;28;20463;-83
2023/04/13 12:11:37;;;;;;;6.27;2.60;;;15.70;1.00;;;;;;5036352;28;20540;-83
2023/04/13 12:14:04;;;;;;;6.47;2.60;;;15.40;99.90;;;;;;5037664;28;20484;-83
2023/04/13 12:16:32;;;;;;;5.93;2.00;;;15.20;99.90;;;;;;5030180;28;20527;-83
2023/04/13 12:19:06;;;;;;;4.20;1.70;;;15.40;99.90;;;;;;5030300;28;21071;-83
2023/04/13 12:21:34;;;;;;;9.80;2.40;;;15.80;99.90;;;;;;5031258;28;20948;-83
2023/04/13 12:24:02;;;;;;;10.10;2.20;;;15.60;99.90;;;;;;5035211;28;20479;-82
2023/04/13 12:26:33;;;;;;;6.93;2.17;;;15.10;99.90;;;;;;5023760;28;20468;-83
2023/04/13 12:29:03;;;;;;;6.93;2.80;;;15.40;99.90;;;;;;5031173;28;20462;-85
2023/04/13 12:31:34;;;;;;;8.57;1.73;;;17.50;99.90;;;;;;5039603;28;20492;-83
2023/04/13 12:34:01;;;;;;;7.70;2.10;;;19.60;99.90;;;;;;5036481;28;20469;-84
2023/04/13 12:36:30;;;;;;;6.00;2.00;;;21.60;99.90;;;;;;5023859;28;20467;-83
2023/04/13 12:38:58;;;;;;;4.53;1.50;;;22.50;99.90;;;;;;5017476;28;20541;-84
2023/04/13 12:41:25;;;;;;;4.00;1.90;;;23.10;99.90;;;;;;5015703;28;20458;-85
2023/04/13 12:43:52;;;;;;;4.90;1.83;;;22.40;99.90;;;;;;5036011;28;20555;-84
2023/04/13 12:46:20;;;;;;;5.77;1.80;;;23.00;99.90;;;;;;5035074;28;20456;-84
2023/04/13 12:48:47;;;;;;;5.90;1.73;;;25.20;99.90;;;;;;5017555;28;20458;-83
2023/04/13 12:51:14;;;;;;;8.80;2.40;;;23.20;99.90;;;;;;5021489;28;20469;-84
2023/04/13 12:53:40;;;;;;;6.30;2.17;;;22.10;99.90;;;;;;5026241;28;20453;-84
2023/04/13 12:56:09;;;;;;;4.00;2.00;;;20.80;99.90;;;;;;5026948;28;20806;-84
2023/04/13 12:58:36;;;;;;;5.53;1.73;;;21.90;99.90;;;;;;5022820;28;20450;-84
2023/04/13 13:01:03;;;;;;;4.00;1.80;;;24.30;99.90;;;;;;5020436;28;20585;-83
2023/04/13 13:03:30;;;;;;;4.10;1.80;;;24.50;99.90;;;;;;5015192;28;20524;-83